sensor_id;sensor_type;location;lat;lon;timestamp;pressure;altitude;pressure_sealevel;temperature
18713;BMP280;9485;49.386;8.674;2024-01-06T00:03:05;99281.25;;;6.58
18713;BMP280;9485;49.386;8.674;2024-01-06T00:08:27;99284.56;;;6.56
18713;BMP280;9485;49.386;8.674;2024-01-06T00:13:48;99280.50;;;6.57
18713;BMP280;9485;49.386;8.674;2024-01-06T00:19:09;99286.34;;;6.54
18713;BMP280;9485;49.386;8.674;2024-01-06T00:24:31;99285.75;;;6.50
18713;BMP280;9485;49.386;8.674;2024-01-06T00:29:51;99288.56;;;6.50
18713;BMP280;9485;49.386;8.674;2024-01-06T00:35:12;99288.78;;;6.46
18713;BMP280;9485;49.386;8.674;2024-01-06T00:40:34;99283.69;;;6.45
18713;BMP280;9485;49.386;8.674;2024-01-06T00:45:55;99289.50;;;6.41
18713;BMP280;9485;49.386;8.674;2024-01-06T00:51:16;99289.50;;;6.41
18713;BMP280;9485;49.386;8.674;2024-01-06T00:56:38;99296.09;;;6.38
18713;BMP280;9485;49.386;8.674;2024-01-06T01:01:58;99303.69;;;6.32
18713;BMP280;9485;49.386;8.674;2024-01-06T01:07:19;99296.28;;;6.29
18713;BMP280;9485;49.386;8.674;2024-01-06T01:12:41;99303.69;;;6.32
18713;BMP280;9485;49.386;8.674;2024-01-06T01:18:04;99310.13;;;6.38
18713;BMP280;9485;49.386;8.674;2024-01-06T01:23:24;99326.50;;;6.45
18713;BMP280;9485;49.386;8.674;2024-01-06T01:28:47;99329.38;;;6.51
18713;BMP280;9485;49.386;8.674;2024-01-06T01:34:07;99337.28;;;6.52
18713;BMP280;9485;49.386;8.674;2024-01-06T01:39:28;99335.41;;;6.44
18713;BMP280;9485;49.386;8.674;2024-01-06T01:44:50;99353.34;;;6.52
18713;BMP280;9485;49.386;8.674;2024-01-06T01:50:12;99355.44;;;6.57
18713;BMP280;9485;49.386;8.674;2024-01-06T01:55:33;99354.53;;;6.65
18713;BMP280;9485;49.386;8.674;2024-01-06T02:00:55;99365.13;;;6.81
18713;BMP280;9485;49.386;8.674;2024-01-06T02:06:16;99375.44;;;6.95
18713;BMP280;9485;49.386;8.674;2024-01-06T02:11:36;99373.00;;;7.08
18713;BMP280;9485;49.386;8.674;2024-01-06T02:16:59;99379.00;;;7.21
18713;BMP280;9485;49.386;8.674;2024-01-06T02:22:21;99379.50;;;7.19
18713;BMP280;9485;49.386;8.674;2024-01-06T02:27:42;99383.63;;;7.24
18713;BMP280;9485;49.386;8.674;2024-01-06T02:33:03;99388.19;;;7.21
18713;BMP280;9485;49.386;8.674;2024-01-06T02:38:24;99395.13;;;7.26
18713;BMP280;9485;49.386;8.674;2024-01-06T02:43:46;99402.53;;;7.29
18713;BMP280;9485;49.386;8.674;2024-01-06T02:49:08;99406.13;;;7.29
18713;BMP280;9485;49.386;8.674;2024-01-06T02:54:30;99415.31;;;7.30
18713;BMP280;9485;49.386;8.674;2024-01-06T02:59:50;99414.03;;;7.31
18713;BMP280;9485;49.386;8.674;2024-01-06T03:05:11;99414.25;;;7.27
18713;BMP280;9485;49.386;8.674;2024-01-06T03:10:32;99413.50;;;7.27
18713;BMP280;9485;49.386;8.674;2024-01-06T03:15:53;99411.97;;;7.26
18713;BMP280;9485;49.386;8.674;2024-01-06T03:21:18;99419.34;;;7.23
18713;BMP280;9485;49.386;8.674;2024-01-06T03:26:40;99411.69;;;7.24
18713;BMP280;9485;49.386;8.674;2024-01-06T03:32:01;99411.97;;;7.26
18713;BMP280;9485;49.386;8.674;2024-01-06T03:37:22;99415.75;;;7.23
18713;BMP280;9485;49.386;8.674;2024-01-06T03:42:44;99422.16;;;7.23
18713;BMP280;9485;49.386;8.674;2024-01-06T03:48:05;99419.66;;;7.31
18713;BMP280;9485;49.386;8.674;2024-01-06T03:53:26;99417.59;;;7.26
18713;BMP280;9485;49.386;8.674;2024-01-06T03:58:48;99411.97;;;7.26
18713;BMP280;9485;49.386;8.674;2024-01-06T04:04:08;99404.88;;;7.30
18713;BMP280;9485;49.386;8.674;2024-01-06T04:09:28;99413.53;;;7.32
18713;BMP280;9485;49.386;8.674;2024-01-06T04:14:51;99405.34;;;7.29
18713;BMP280;9485;49.386;8.674;2024-01-06T04:20:11;99406.06;;;7.24
18713;BMP280;9485;49.386;8.674;2024-01-06T04:25:32;99408.34;;;7.20
18713;BMP280;9485;49.386;8.674;2024-01-06T04:30:54;99413.22;;;7.25
18713;BMP280;9485;49.386;8.674;2024-01-06T04:36:15;99409.69;;;7.30
18713;BMP280;9485;49.386;8.674;2024-01-06T04:41:35;99407.66;;;7.30
18713;BMP280;9485;49.386;8.674;2024-01-06T04:46:57;99402.06;;;7.30
18713;BMP280;9485;49.386;8.674;2024-01-06T04:52:17;99409.47;;;7.33
18713;BMP280;9485;49.386;8.674;2024-01-06T04:57:38;99416.84;;;7.31
18713;BMP280;9485;49.386;8.674;2024-01-06T05:03:00;99417.66;;;7.37
18713;BMP280;9485;49.386;8.674;2024-01-06T05:08:20;99419.22;;;7.38
18713;BMP280;9485;49.386;8.674;2024-01-06T05:13:41;99421.28;;;7.43
18713;BMP280;9485;49.386;8.674;2024-01-06T05:19:03;99432.06;;;7.49
18713;BMP280;9485;49.386;8.674;2024-01-06T05:24:24;99438.47;;;7.50
18713;BMP280;9485;49.386;8.674;2024-01-06T05:29:44;99448.69;;;7.53
18713;BMP280;9485;49.386;8.674;2024-01-06T05:35:07;99437.44;;;7.47
18713;BMP280;9485;49.386;8.674;2024-01-06T05:40:28;99431.31;;;7.49
18713;BMP280;9485;49.386;8.674;2024-01-06T05:45:48;99440.53;;;7.55
18713;BMP280;9485;49.386;8.674;2024-01-06T05:51:10;99446.72;;;7.59
18713;BMP280;9485;49.386;8.674;2024-01-06T05:56:30;99448.72;;;7.58
18713;BMP280;9485;49.386;8.674;2024-01-06T06:01:51;99445.66;;;7.56
18713;BMP280;9485;49.386;8.674;2024-01-06T06:07:13;99455.91;;;7.59
18713;BMP280;9485;49.386;8.674;2024-01-06T06:12:34;99466.16;;;7.62
18713;BMP280;9485;49.386;8.674;2024-01-06T06:17:55;99465.66;;;7.64
18713;BMP280;9485;49.386;8.674;2024-01-06T06:23:20;99472.47;;;7.57
18713;BMP280;9485;49.386;8.674;2024-01-06T06:28:40;99486.34;;;7.66
18713;BMP280;9485;49.386;8.674;2024-01-06T06:34:01;99497.81;;;7.63
18713;BMP280;9485;49.386;8.674;2024-01-06T06:39:23;99506.69;;;7.56
18713;BMP280;9485;49.386;8.674;2024-01-06T06:44:43;99502.91;;;7.59
18713;BMP280;9485;49.386;8.674;2024-01-06T06:50:04;99511.34;;;7.64
18713;BMP280;9485;49.386;8.674;2024-01-06T06:55:27;99524.34;;;7.62
18713;BMP280;9485;49.386;8.674;2024-01-06T07:00:48;99532.28;;;7.63
18713;BMP280;9485;49.386;8.674;2024-01-06T07:06:08;99533.28;;;7.60
18713;BMP280;9485;49.386;8.674;2024-01-06T07:11:32;99548.81;;;7.56
18713;BMP280;9485;49.386;8.674;2024-01-06T07:16:53;99548.53;;;7.54
18713;BMP280;9485;49.386;8.674;2024-01-06T07:22:13;99570.25;;;7.53
18713;BMP280;9485;49.386;8.674;2024-01-06T07:27:37;99567.66;;;7.50
18713;BMP280;9485;49.386;8.674;2024-01-06T07:32:57;99570.97;;;7.48
18713;BMP280;9485;49.386;8.674;2024-01-06T07:38:18;99574.47;;;7.43
18713;BMP280;9485;49.386;8.674;2024-01-06T07:43:40;99577.56;;;7.45
18713;BMP280;9485;49.386;8.674;2024-01-06T07:49:01;99584.25;;;7.48
18713;BMP280;9485;49.386;8.674;2024-01-06T07:54:21;99589.53;;;7.41
18713;BMP280;9485;49.386;8.674;2024-01-06T07:59:44;99594.66;;;7.42
18713;BMP280;9485;49.386;8.674;2024-01-06T08:05:05;99603.63;;;7.46
18713;BMP280;9485;49.386;8.674;2024-01-06T08:10:26;99614.41;;;7.53
18713;BMP280;9485;49.386;8.674;2024-01-06T08:15:47;99616.47;;;7.52
18713;BMP280;9485;49.386;8.674;2024-01-06T08:21:08;99616.13;;;7.45
18713;BMP280;9485;49.386;8.674;2024-01-06T08:26:29;99613.75;;;7.38
18713;BMP280;9485;49.386;8.674;2024-01-06T08:31:51;99623.78;;;7.44
18713;BMP280;9485;49.386;8.674;2024-01-06T08:37:13;99624.28;;;7.43
18713;BMP280;9485;49.386;8.674;2024-01-06T08:42:34;99636.56;;;7.45
18713;BMP280;9485;49.386;8.674;2024-01-06T08:47:56;99637.28;;;7.41
18713;BMP280;9485;49.386;8.674;2024-01-06T08:53:17;99647.41;;;7.33
18713;BMP280;9485;49.386;8.674;2024-01-06T08:58:38;99652.22;;;7.32
18713;BMP280;9485;49.386;8.674;2024-01-06T09:04:00;99661.22;;;7.36
18713;BMP280;9485;49.386;8.674;2024-01-06T09:09:20;99663.75;;;7.34
18713;BMP280;9485;49.386;8.674;2024-01-06T09:14:42;99662.56;;;7.41
18713;BMP280;9485;49.386;8.674;2024-01-06T09:20:06;99660.28;;;7.44
18713;BMP280;9485;49.386;8.674;2024-01-06T09:25:26;99667.47;;;7.45
18713;BMP280;9485;49.386;8.674;2024-01-06T09:30:47;99664.09;;;7.42
18713;BMP280;9485;49.386;8.674;2024-01-06T09:36:09;99671.81;;;7.46
18713;BMP280;9485;49.386;8.674;2024-01-06T09:41:31;99673.63;;;7.49
18713;BMP280;9485;49.386;8.674;2024-01-06T09:46:54;99683.16;;;7.57
18713;BMP280;9485;49.386;8.674;2024-01-06T09:52:22;99675.91;;;7.71
18713;BMP280;9485;49.386;8.674;2024-01-06T09:57:45;99686.38;;;7.70
18713;BMP280;9485;49.386;8.674;2024-01-06T10:03:05;99689.41;;;7.67
18713;BMP280;9485;49.386;8.674;2024-01-06T10:08:29;99683.63;;;7.76
18713;BMP280;9485;49.386;8.674;2024-01-06T10:13:52;99682.88;;;7.75
18713;BMP280;9485;49.386;8.674;2024-01-06T10:19:13;99690.38;;;7.84
18713;BMP280;9485;49.386;8.674;2024-01-06T10:24:37;99675.13;;;7.90
18713;BMP280;9485;49.386;8.674;2024-01-06T10:29:58;99681.06;;;7.98
18713;BMP280;9485;49.386;8.674;2024-01-06T10:35:18;99679.06;;;8.04
18713;BMP280;9485;49.386;8.674;2024-01-06T10:40:40;99679.56;;;8.02
18713;BMP280;9485;49.386;8.674;2024-01-06T10:46:08;99680.56;;;7.99
18713;BMP280;9485;49.386;8.674;2024-01-06T10:51:33;99694.44;;;8.08
18713;BMP280;9485;49.386;8.674;2024-01-06T10:56:57;99692.41;;;8.09
18713;BMP280;9485;49.386;8.674;2024-01-06T11:02:19;99685.50;;;8.10
18713;BMP280;9485;49.386;8.674;2024-01-06T11:07:40;99693.31;;;8.20
18713;BMP280;9485;49.386;8.674;2024-01-06T11:13:14;99685.44;;;8.24
18713;BMP280;9485;49.386;8.674;2024-01-06T11:18:40;99680.91;;;8.32
18713;BMP280;9485;49.386;8.674;2024-01-06T11:24:14;99679.13;;;8.34
18713;BMP280;9485;49.386;8.674;2024-01-06T11:29:37;99669.22;;;8.44
18713;BMP280;9485;49.386;8.674;2024-01-06T11:35:07;99678.00;;;8.52
18713;BMP280;9485;49.386;8.674;2024-01-06T11:40:34;99676.16;;;8.49
18713;BMP280;9485;49.386;8.674;2024-01-06T11:45:58;99676.28;;;8.60
18713;BMP280;9485;49.386;8.674;2024-01-06T11:51:20;99676.97;;;8.55
18713;BMP280;9485;49.386;8.674;2024-01-06T11:56:40;99684.31;;;8.78
18713;BMP280;9485;49.386;8.674;2024-01-06T12:02:02;99671.75;;;8.73
18713;BMP280;9485;49.386;8.674;2024-01-06T12:07:23;99668.97;;;8.79
18713;BMP280;9485;49.386;8.674;2024-01-06T12:12:55;99663.34;;;8.79
18713;BMP280;9485;49.386;8.674;2024-01-06T12:18:19;99659.00;;;8.78
18713;BMP280;9485;49.386;8.674;2024-01-06T12:23:39;99659.72;;;8.73
18713;BMP280;9485;49.386;8.674;2024-01-06T12:29:04;99662.28;;;8.71
18713;BMP280;9485;49.386;8.674;2024-01-06T12:34:26;99657.91;;;8.70
18713;BMP280;9485;49.386;8.674;2024-01-06T12:39:47;99666.06;;;8.68
18713;BMP280;9485;49.386;8.674;2024-01-06T12:45:09;99655.09;;;8.70
18713;BMP280;9485;49.386;8.674;2024-01-06T12:50:31;99659.78;;;8.84
18713;BMP280;9485;49.386;8.674;2024-01-06T12:55:52;99665.16;;;8.82
18713;BMP280;9485;49.386;8.674;2024-01-06T13:01:13;99669.25;;;8.81
18713;BMP280;9485;49.386;8.674;2024-01-06T13:06:35;99673.06;;;8.78
18713;BMP280;9485;49.386;8.674;2024-01-06T13:11:56;99679.44;;;8.73
18713;BMP280;9485;49.386;8.674;2024-01-06T13:17:19;99688.13;;;8.75
18713;BMP280;9485;49.386;8.674;2024-01-06T13:22:41;99677.94;;;8.77
18713;BMP280;9485;49.386;8.674;2024-01-06T13:28:03;99680.06;;;8.88
18713;BMP280;9485;49.386;8.674;2024-01-06T13:33:23;99677.25;;;8.93
18713;BMP280;9485;49.386;8.674;2024-01-06T13:38:45;99678.56;;;8.97
18713;BMP280;9485;49.386;8.674;2024-01-06T13:44:07;99682.13;;;8.93
18713;BMP280;9485;49.386;8.674;2024-01-06T13:49:29;99688.75;;;8.90
18713;BMP280;9485;49.386;8.674;2024-01-06T13:54:52;99683.91;;;8.95
18713;BMP280;9485;49.386;8.674;2024-01-06T14:00:13;99689.28;;;8.94
18713;BMP280;9485;49.386;8.674;2024-01-06T14:05:38;99688.31;;;9.02
18713;BMP280;9485;49.386;8.674;2024-01-06T14:11:00;99692.97;;;9.10
18713;BMP280;9485;49.386;8.674;2024-01-06T14:16:21;99688.84;;;9.06
18713;BMP280;9485;49.386;8.674;2024-01-06T14:21:42;99694.47;;;9.06
18713;BMP280;9485;49.386;8.674;2024-01-06T14:27:04;99696.75;;;9.02
18713;BMP280;9485;49.386;8.674;2024-01-06T14:32:24;99697.47;;;8.92
18713;BMP280;9485;49.386;8.674;2024-01-06T14:37:44;99705.22;;;9.02
18713;BMP280;9485;49.386;8.674;2024-01-06T14:43:06;99713.63;;;8.96
18713;BMP280;9485;49.386;8.674;2024-01-06T14:48:27;99722.88;;;9.02
18713;BMP280;9485;49.386;8.674;2024-01-06T14:53:48;99720.09;;;9.08
18713;BMP280;9485;49.386;8.674;2024-01-06T14:59:10;99729.34;;;9.14
18713;BMP280;9485;49.386;8.674;2024-01-06T15:04:30;99735.03;;;9.19
18713;BMP280;9485;49.386;8.674;2024-01-06T15:09:51;99738.59;;;9.20
18713;BMP280;9485;49.386;8.674;2024-01-06T15:15:14;99738.34;;;9.23
18713;BMP280;9485;49.386;8.674;2024-01-06T15:20:35;99751.63;;;9.12
18713;BMP280;9485;49.386;8.674;2024-01-06T15:25:55;99749.97;;;8.95
18713;BMP280;9485;49.386;8.674;2024-01-06T15:31:17;99759.41;;;8.92
18713;BMP280;9485;49.386;8.674;2024-01-06T15:36:38;99753.47;;;8.84
18713;BMP280;9485;49.386;8.674;2024-01-06T15:41:58;99763.13;;;8.78
18713;BMP280;9485;49.386;8.674;2024-01-06T15:47:20;99768.94;;;8.69
18713;BMP280;9485;49.386;8.674;2024-01-06T15:52:41;99767.13;;;8.66
18713;BMP280;9485;49.386;8.674;2024-01-06T15:58:05;99774.25;;;8.61
18713;BMP280;9485;49.386;8.674;2024-01-06T16:03:27;99781.44;;;8.62
18713;BMP280;9485;49.386;8.674;2024-01-06T16:08:47;99775.47;;;8.55
18713;BMP280;9485;49.386;8.674;2024-01-06T16:14:07;99782.81;;;8.47
18713;BMP280;9485;49.386;8.674;2024-01-06T16:19:30;99780.66;;;8.36
18713;BMP280;9485;49.386;8.674;2024-01-06T16:24:50;99786.25;;;8.11
18713;BMP280;9485;49.386;8.674;2024-01-06T16:30:12;99790.75;;;8.03
18713;BMP280;9485;49.386;8.674;2024-01-06T16:35:35;99790.16;;;7.94
18713;BMP280;9485;49.386;8.674;2024-01-06T16:40:56;99790.63;;;7.92
18713;BMP280;9485;49.386;8.674;2024-01-06T16:46:16;99793.59;;;7.83
18713;BMP280;9485;49.386;8.674;2024-01-06T16:51:39;99801.03;;;7.86
18713;BMP280;9485;49.386;8.674;2024-01-06T16:56:59;99795.69;;;7.88
18713;BMP280;9485;49.386;8.674;2024-01-06T17:02:22;99801.25;;;7.83
18713;BMP280;9485;49.386;8.674;2024-01-06T17:07:45;99796.66;;;7.85
18713;BMP280;9485;49.386;8.674;2024-01-06T17:13:06;99810.50;;;7.89
18713;BMP280;9485;49.386;8.674;2024-01-06T17:18:27;99809.47;;;7.86
18713;BMP280;9485;49.386;8.674;2024-01-06T17:23:49;99817.19;;;7.91
18713;BMP280;9485;49.386;8.674;2024-01-06T17:29:12;99827.44;;;7.94
18713;BMP280;9485;49.386;8.674;2024-01-06T17:34:32;99826.59;;;8.08
18713;BMP280;9485;49.386;8.674;2024-01-06T17:39:54;99836.69;;;8.15
18713;BMP280;9485;49.386;8.674;2024-01-06T17:45:15;99835.69;;;8.18
18713;BMP280;9485;49.386;8.674;2024-01-06T17:50:36;99835.47;;;8.21
18713;BMP280;9485;49.386;8.674;2024-01-06T17:55:59;99836.03;;;8.25
18713;BMP280;9485;49.386;8.674;2024-01-06T18:01:19;99843.69;;;8.24
18713;BMP280;9485;49.386;8.674;2024-01-06T18:06:40;99847.44;;;8.16
18713;BMP280;9485;49.386;8.674;2024-01-06T18:12:04;99835.88;;;8.14
18713;BMP280;9485;49.386;8.674;2024-01-06T18:17:25;99849.59;;;8.26
18713;BMP280;9485;49.386;8.674;2024-01-06T18:22:46;99847.28;;;8.25
18713;BMP280;9485;49.386;8.674;2024-01-06T18:28:08;99854.19;;;8.24
18713;BMP280;9485;49.386;8.674;2024-01-06T18:33:29;99862.84;;;8.21
18713;BMP280;9485;49.386;8.674;2024-01-06T18:38:51;99868.94;;;8.19
18713;BMP280;9485;49.386;8.674;2024-01-06T18:44:12;99866.41;;;8.21
18713;BMP280;9485;49.386;8.674;2024-01-06T18:49:33;99866.25;;;8.10
18713;BMP280;9485;49.386;8.674;2024-01-06T18:54:53;99867.66;;;8.00
18713;BMP280;9485;49.386;8.674;2024-01-06T19:00:16;99863.78;;;7.98
18713;BMP280;9485;49.386;8.674;2024-01-06T19:05:38;99866.25;;;7.90
18713;BMP280;9485;49.386;8.674;2024-01-06T19:10:58;99869.47;;;7.83
18713;BMP280;9485;49.386;8.674;2024-01-06T19:16:20;99876.00;;;7.75
18713;BMP280;9485;49.386;8.674;2024-01-06T19:21:41;99881.81;;;7.71
18713;BMP280;9485;49.386;8.674;2024-01-06T19:27:01;99882.00;;;7.68
18713;BMP280;9485;49.386;8.674;2024-01-06T19:32:23;99885.31;;;7.66
18713;BMP280;9485;49.386;8.674;2024-01-06T19:37:44;99893.75;;;7.66
18713;BMP280;9485;49.386;8.674;2024-01-06T19:43:05;99883.69;;;7.60
18713;BMP280;9485;49.386;8.674;2024-01-06T19:48:27;99889.81;;;7.58
18713;BMP280;9485;49.386;8.674;2024-01-06T19:53:48;99896.69;;;7.57
18713;BMP280;9485;49.386;8.674;2024-01-06T19:59:08;99900.47;;;7.54
18713;BMP280;9485;49.386;8.674;2024-01-06T20:04:31;99895.31;;;7.53
18713;BMP280;9485;49.386;8.674;2024-01-06T20:09:52;99897.38;;;7.52
18713;BMP280;9485;49.386;8.674;2024-01-06T20:15:12;99904.53;;;7.53
18713;BMP280;9485;49.386;8.674;2024-01-06T20:20:34;99894.28;;;7.50
18713;BMP280;9485;49.386;8.674;2024-01-06T20:25:55;99895.81;;;7.51
18713;BMP280;9485;49.386;8.674;2024-01-06T20:31:16;99901.44;;;7.51
18713;BMP280;9485;49.386;8.674;2024-01-06T20:36:38;99892.94;;;7.46
18713;BMP280;9485;49.386;8.674;2024-01-06T20:42:00;99901.28;;;7.41
18713;BMP280;9485;49.386;8.674;2024-01-06T20:47:20;99900.44;;;7.35
18713;BMP280;9485;49.386;8.674;2024-01-06T20:52:42;99902.84;;;7.27
18713;BMP280;9485;49.386;8.674;2024-01-06T20:58:03;99895.41;;;7.24
18713;BMP280;9485;49.386;8.674;2024-01-06T21:03:24;99890.25;;;7.23
18713;BMP280;9485;49.386;8.674;2024-01-06T21:08:46;99888.72;;;7.22
18713;BMP280;9485;49.386;8.674;2024-01-06T21:14:07;99891.25;;;7.20
18713;BMP280;9485;49.386;8.674;2024-01-06T21:19:27;99894.81;;;7.20
18713;BMP280;9485;49.386;8.674;2024-01-06T21:24:49;99898.63;;;7.17
18713;BMP280;9485;49.386;8.674;2024-01-06T21:30:10;99890.84;;;7.12
18713;BMP280;9485;49.386;8.674;2024-01-06T21:35:31;99904.63;;;7.10
18713;BMP280;9485;49.386;8.674;2024-01-06T21:40:52;99900.16;;;7.04
18713;BMP280;9485;49.386;8.674;2024-01-06T21:46:13;99905.00;;;7.03
18713;BMP280;9485;49.386;8.674;2024-01-06T21:51:45;99912.66;;;7.03
18713;BMP280;9485;49.386;8.674;2024-01-06T21:57:07;99912.66;;;7.03
18713;BMP280;9485;49.386;8.674;2024-01-06T22:02:27;99920.31;;;7.02
18713;BMP280;9485;49.386;8.674;2024-01-06T22:07:48;99927.75;;;7.05
18713;BMP280;9485;49.386;8.674;2024-01-06T22:13:09;99922.13;;;7.05
18713;BMP280;9485;49.386;8.674;2024-01-06T22:18:30;99925.22;;;7.07
18713;BMP280;9485;49.386;8.674;2024-01-06T22:23:50;99932.41;;;7.08
18713;BMP280;9485;49.386;8.674;2024-01-06T22:29:13;99931.59;;;7.08
18713;BMP280;9485;49.386;8.674;2024-01-06T22:34:33;99934.59;;;7.04
18713;BMP280;9485;49.386;8.674;2024-01-06T22:39:54;99912.06;;;6.99
18713;BMP280;9485;49.386;8.674;2024-01-06T22:45:16;99930.53;;;7.05
18713;BMP280;9485;49.386;8.674;2024-01-06T22:50:36;99927.47;;;7.03
18713;BMP280;9485;49.386;8.674;2024-01-06T22:55:56;99941.00;;;7.05
18713;BMP280;9485;49.386;8.674;2024-01-06T23:01:18;99939.75;;;7.06
18713;BMP280;9485;49.386;8.674;2024-01-06T23:06:40;99941.31;;;7.07
18713;BMP280;9485;49.386;8.674;2024-01-06T23:12:00;99943.44;;;7.12
18713;BMP280;9485;49.386;8.674;2024-01-06T23:17:22;99948.34;;;7.17
18713;BMP280;9485;49.386;8.674;2024-01-06T23:22:43;99950.69;;;7.18
18713;BMP280;9485;49.386;8.674;2024-01-06T23:28:04;99963.25;;;7.23
18713;BMP280;9485;49.386;8.674;2024-01-06T23:33:26;99957.66;;;7.23
18713;BMP280;9485;49.386;8.674;2024-01-06T23:38:46;99958.72;;;7.25
18713;BMP280;9485;49.386;8.674;2024-01-06T23:44:07;99970.03;;;7.31
18713;BMP280;9485;49.386;8.674;2024-01-06T23:49:29;99965.50;;;7.33
18713;BMP280;9485;49.386;8.674;2024-01-06T23:54:49;99955.25;;;7.30
